sensor_id;sensor_type;location;lat;lon;timestamp;temperature;humidity
34147;DHT22;20423;49.448;9.056;2023-04-24T00:00:08;8.30;99.90
34147;DHT22;20423;49.448;9.056;2023-04-24T00:02:35;8.40;99.90
34147;DHT22;20423;49.448;9.056;2023-04-24T00:05:04;8.50;99.90
34147;DHT22;20423;49.448;9.056;2023-04-24T00:07:29;8.50;99.90
34147;DHT22;20423;49.448;9.056;2023-04-24T00:09:55;8.40;99.90
34147;DHT22;20423;49.448;9.056;2023-04-24T00:12:21;8.40;99.90
34147;DHT22;20423;49.448;9.056;2023-04-24T00:14:47;8.30;99.90
34147;DHT22;20423;49.448;9.056;2023-04-24T00:17:13;8.30;99.90
34147;DHT22;20423;49.448;9.056;2023-04-24T00:19:38;8.20;99.90
34147;DHT22;20423;49.448;9.056;2023-04-24T00:22:04;8.20;99.90
34147;DHT22;20423;49.448;9.056;2023-04-24T00:24:31;8.20;99.90
34147;DHT22;20423;49.448;9.056;2023-04-24T00:26:56;8.20;99.90
34147;DHT22;20423;49.448;9.056;2023-04-24T00:29:22;8.20;99.90
34147;DHT22;20423;49.448;9.056;2023-04-24T00:31:48;8.20;99.90
34147;DHT22;20423;49.448;9.056;2023-04-24T00:34:14;8.20;99.90
34147;DHT22;20423;49.448;9.056;2023-04-24T00:36:39;8.20;99.90
34147;DHT22;20423;49.448;9.056;2023-04-24T00:39:05;8.10;99.90
34147;DHT22;20423;49.448;9.056;2023-04-24T00:41:34;8.10;99.90
34147;DHT22;20423;49.448;9.056;2023-04-24T00:44:00;8.10;99.90
34147;DHT22;20423;49.448;9.056;2023-04-24T00:46:26;8.10;99.90
34147;DHT22;20423;49.448;9.056;2023-04-24T00:48:51;8.10;99.90
34147;DHT22;20423;49.448;9.056;2023-04-24T00:51:17;8.10;99.90
34147;DHT22;20423;49.448;9.056;2023-04-24T00:53:43;8.10;99.90
34147;DHT22;20423;49.448;9.056;2023-04-24T00:56:09;8.20;99.90
34147;DHT22;20423;49.448;9.056;2023-04-24T00:58:35;8.20;99.90
34147;DHT22;20423;49.448;9.056;2023-04-24T01:01:01;8.20;99.90
34147;DHT22;20423;49.448;9.056;2023-04-24T01:03:31;8.20;99.90
34147;DHT22;20423;49.448;9.056;2023-04-24T01:05:57;8.20;99.90
34147;DHT22;20423;49.448;9.056;2023-04-24T01:08:24;8.20;99.90
34147;DHT22;20423;49.448;9.056;2023-04-24T01:10:53;8.20;99.90
34147;DHT22;20423;49.448;9.056;2023-04-24T01:13:19;8.20;99.90
34147;DHT22;20423;49.448;9.056;2023-04-24T01:15:46;8.30;99.90
34147;DHT22;20423;49.448;9.056;2023-04-24T01:18:13;8.30;99.90
34147;DHT22;20423;49.448;9.056;2023-04-24T01:20:40;8.30;99.90
34147;DHT22;20423;49.448;9.056;2023-04-24T01:23:07;8.30;99.90
34147;DHT22;20423;49.448;9.056;2023-04-24T01:25:33;8.30;99.90
34147;DHT22;20423;49.448;9.056;2023-04-24T01:27:59;8.30;99.90
34147;DHT22;20423;49.448;9.056;2023-04-24T01:30:26;8.30;99.90
34147;DHT22;20423;49.448;9.056;2023-04-24T01:32:52;8.40;99.90
34147;DHT22;20423;49.448;9.056;2023-04-24T01:35:18;8.40;99.90
34147;DHT22;20423;49.448;9.056;2023-04-24T01:37:44;8.40;99.90
34147;DHT22;20423;49.448;9.056;2023-04-24T01:40:10;8.40;99.90
34147;DHT22;20423;49.448;9.056;2023-04-24T01:42:36;8.30;99.90
34147;DHT22;20423;49.448;9.056;2023-04-24T01:45:03;8.30;99.90
34147;DHT22;20423;49.448;9.056;2023-04-24T01:47:30;8.30;99.90
34147;DHT22;20423;49.448;9.056;2023-04-24T01:49:56;8.40;99.90
34147;DHT22;20423;49.448;9.056;2023-04-24T01:52:22;8.30;99.90
34147;DHT22;20423;49.448;9.056;2023-04-24T01:54:48;8.40;99.90
34147;DHT22;20423;49.448;9.056;2023-04-24T01:57:14;8.40;99.90
34147;DHT22;20423;49.448;9.056;2023-04-24T01:59:41;8.50;99.90
34147;DHT22;20423;49.448;9.056;2023-04-24T02:02:07;8.50;99.90
34147;DHT22;20423;49.448;9.056;2023-04-24T02:04:34;8.50;99.90
34147;DHT22;20423;49.448;9.056;2023-04-24T02:07:00;8.50;99.90
34147;DHT22;20423;49.448;9.056;2023-04-24T02:09:26;8.50;99.90
34147;DHT22;20423;49.448;9.056;2023-04-24T02:11:51;8.50;99.90
34147;DHT22;20423;49.448;9.056;2023-04-24T02:14:17;8.50;99.90
34147;DHT22;20423;49.448;9.056;2023-04-24T02:16:43;8.50;99.90
34147;DHT22;20423;49.448;9.056;2023-04-24T02:19:09;8.50;99.90
34147;DHT22;20423;49.448;9.056;2023-04-24T02:21:36;8.50;99.90
34147;DHT22;20423;49.448;9.056;2023-04-24T02:24:08;8.50;99.90
34147;DHT22;20423;49.448;9.056;2023-04-24T02:26:33;8.50;99.90
34147;DHT22;20423;49.448;9.056;2023-04-24T02:28:59;8.50;99.90
34147;DHT22;20423;49.448;9.056;2023-04-24T02:31:25;8.50;99.90
34147;DHT22;20423;49.448;9.056;2023-04-24T02:33:51;8.50;99.90
34147;DHT22;20423;49.448;9.056;2023-04-24T02:36:16;8.50;99.90
34147;DHT22;20423;49.448;9.056;2023-04-24T02:38:42;8.60;99.90
34147;DHT22;20423;49.448;9.056;2023-04-24T02:41:08;8.60;99.90
34147;DHT22;20423;49.448;9.056;2023-04-24T02:43:33;8.60;99.90
34147;DHT22;20423;49.448;9.056;2023-04-24T02:45:59;8.60;99.90
34147;DHT22;20423;49.448;9.056;2023-04-24T02:48:25;8.50;99.90
34147;DHT22;20423;49.448;9.056;2023-04-24T02:50:51;8.60;99.90
34147;DHT22;20423;49.448;9.056;2023-04-24T02:53:17;8.60;99.90
34147;DHT22;20423;49.448;9.056;2023-04-24T02:55:42;8.50;99.90
34147;DHT22;20423;49.448;9.056;2023-04-24T02:58:08;8.50;99.90
34147;DHT22;20423;49.448;9.056;2023-04-24T03:00:34;8.40;99.90
34147;DHT22;20423;49.448;9.056;2023-04-24T03:03:00;8.30;99.90
34147;DHT22;20423;49.448;9.056;2023-04-24T03:05:25;8.20;99.90
34147;DHT22;20423;49.448;9.056;2023-04-24T03:07:52;8.30;99.90
34147;DHT22;20423;49.448;9.056;2023-04-24T03:10:20;8.20;99.90
34147;DHT22;20423;49.448;9.056;2023-04-24T03:12:48;8.30;99.90
34147;DHT22;20423;49.448;9.056;2023-04-24T03:15:14;8.30;99.90
34147;DHT22;20423;49.448;9.056;2023-04-24T03:17:40;8.30;99.90
34147;DHT22;20423;49.448;9.056;2023-04-24T03:20:07;8.40;99.90
34147;DHT22;20423;49.448;9.056;2023-04-24T03:22:34;8.40;99.90
34147;DHT22;20423;49.448;9.056;2023-04-24T03:25:02;8.40;99.90
34147;DHT22;20423;49.448;9.056;2023-04-24T03:27:28;8.40;99.90
34147;DHT22;20423;49.448;9.056;2023-04-24T03:30:02;8.40;99.90
34147;DHT22;20423;49.448;9.056;2023-04-24T03:32:53;8.40;99.90
34147;DHT22;20423;49.448;9.056;2023-04-24T03:35:23;8.40;99.90
34147;DHT22;20423;49.448;9.056;2023-04-24T03:37:50;8.40;99.90
34147;DHT22;20423;49.448;9.056;2023-04-24T03:40:52;8.40;99.90
34147;DHT22;20423;49.448;9.056;2023-04-24T03:43:32;8.40;99.90
34147;DHT22;20423;49.448;9.056;2023-04-24T03:46:00;8.40;99.90
34147;DHT22;20423;49.448;9.056;2023-04-24T03:48:27;8.20;99.90
34147;DHT22;20423;49.448;9.056;2023-04-24T03:50:52;8.20;99.90
34147;DHT22;20423;49.448;9.056;2023-04-24T03:53:19;7.90;99.90
34147;DHT22;20423;49.448;9.056;2023-04-24T03:55:46;7.60;99.90
34147;DHT22;20423;49.448;9.056;2023-04-24T03:58:11;7.50;99.90
34147;DHT22;20423;49.448;9.056;2023-04-24T04:00:39;7.40;99.90
34147;DHT22;20423;49.448;9.056;2023-04-24T04:03:56;7.20;99.90
34147;DHT22;20423;49.448;9.056;2023-04-24T04:06:24;7.00;99.90
34147;DHT22;20423;49.448;9.056;2023-04-24T04:08:52;6.90;99.90
34147;DHT22;20423;49.448;9.056;2023-04-24T04:11:18;6.90;99.90
34147;DHT22;20423;49.448;9.056;2023-04-24T04:13:44;6.80;99.90
34147;DHT22;20423;49.448;9.056;2023-04-24T04:16:11;6.70;99.90
34147;DHT22;20423;49.448;9.056;2023-04-24T04:18:37;6.70;99.90
34147;DHT22;20423;49.448;9.056;2023-04-24T04:21:05;6.60;99.90
34147;DHT22;20423;49.448;9.056;2023-04-24T04:23:31;6.50;99.90
34147;DHT22;20423;49.448;9.056;2023-04-24T04:26:06;6.50;99.90
34147;DHT22;20423;49.448;9.056;2023-04-24T04:28:49;6.40;99.90
34147;DHT22;20423;49.448;9.056;2023-04-24T04:31:15;6.30;99.90
34147;DHT22;20423;49.448;9.056;2023-04-24T04:33:41;6.30;99.90
34147;DHT22;20423;49.448;9.056;2023-04-24T04:36:08;6.30;99.90
34147;DHT22;20423;49.448;9.056;2023-04-24T04:38:38;6.30;99.90
34147;DHT22;20423;49.448;9.056;2023-04-24T04:41:14;6.40;99.90
34147;DHT22;20423;49.448;9.056;2023-04-24T04:43:40;6.40;99.90
34147;DHT22;20423;49.448;9.056;2023-04-24T04:46:07;6.40;99.90
34147;DHT22;20423;49.448;9.056;2023-04-24T04:48:49;6.40;99.90
34147;DHT22;20423;49.448;9.056;2023-04-24T04:51:14;6.30;99.90
34147;DHT22;20423;49.448;9.056;2023-04-24T04:53:40;6.30;99.90
34147;DHT22;20423;49.448;9.056;2023-04-24T04:56:06;6.30;99.90
34147;DHT22;20423;49.448;9.056;2023-04-24T04:58:37;6.20;99.90
34147;DHT22;20423;49.448;9.056;2023-04-24T05:01:05;6.20;99.90
34147;DHT22;20423;49.448;9.056;2023-04-24T05:03:38;6.20;99.90
34147;DHT22;20423;49.448;9.056;2023-04-24T05:06:08;6.20;99.90
34147;DHT22;20423;49.448;9.056;2023-04-24T05:08:36;6.20;99.90
34147;DHT22;20423;49.448;9.056;2023-04-24T05:11:04;6.20;99.90
34147;DHT22;20423;49.448;9.056;2023-04-24T05:13:31;6.20;99.90
34147;DHT22;20423;49.448;9.056;2023-04-24T05:15:58;6.20;99.90
34147;DHT22;20423;49.448;9.056;2023-04-24T05:18:24;6.30;99.90
34147;DHT22;20423;49.448;9.056;2023-04-24T05:20:51;6.30;99.90
34147;DHT22;20423;49.448;9.056;2023-04-24T05:23:19;6.30;99.90
34147;DHT22;20423;49.448;9.056;2023-04-24T05:25:49;6.30;99.90
34147;DHT22;20423;49.448;9.056;2023-04-24T05:28:15;6.30;99.90
34147;DHT22;20423;49.448;9.056;2023-04-24T05:30:43;6.20;99.90
34147;DHT22;20423;49.448;9.056;2023-04-24T05:33:09;6.20;99.90
34147;DHT22;20423;49.448;9.056;2023-04-24T05:35:35;6.30;99.90
34147;DHT22;20423;49.448;9.056;2023-04-24T05:38:01;6.30;99.90
34147;DHT22;20423;49.448;9.056;2023-04-24T05:40:27;6.40;99.90
34147;DHT22;20423;49.448;9.056;2023-04-24T05:42:53;6.30;99.90
34147;DHT22;20423;49.448;9.056;2023-04-24T05:45:20;6.40;99.90
34147;DHT22;20423;49.448;9.056;2023-04-24T05:47:46;6.40;99.90
34147;DHT22;20423;49.448;9.056;2023-04-24T05:50:12;6.50;99.90
34147;DHT22;20423;49.448;9.056;2023-04-24T05:52:38;6.60;99.90
34147;DHT22;20423;49.448;9.056;2023-04-24T05:55:12;6.70;99.90
34147;DHT22;20423;49.448;9.056;2023-04-24T05:57:39;6.70;99.90
34147;DHT22;20423;49.448;9.056;2023-04-24T06:00:06;6.80;99.90
34147;DHT22;20423;49.448;9.056;2023-04-24T06:02:49;7.00;99.90
34147;DHT22;20423;49.448;9.056;2023-04-24T06:05:15;7.30;99.90
34147;DHT22;20423;49.448;9.056;2023-04-24T06:07:42;7.30;99.90
34147;DHT22;20423;49.448;9.056;2023-04-24T06:10:17;7.30;99.90
34147;DHT22;20423;49.448;9.056;2023-04-24T06:12:49;7.20;99.90
34147;DHT22;20423;49.448;9.056;2023-04-24T06:15:17;7.20;99.90
34147;DHT22;20423;49.448;9.056;2023-04-24T06:17:53;7.30;99.90
34147;DHT22;20423;49.448;9.056;2023-04-24T06:20:20;7.30;99.90
34147;DHT22;20423;49.448;9.056;2023-04-24T06:22:46;7.40;99.90
34147;DHT22;20423;49.448;9.056;2023-04-24T06:25:12;7.50;99.90
34147;DHT22;20423;49.448;9.056;2023-04-24T06:27:38;7.60;99.90
34147;DHT22;20423;49.448;9.056;2023-04-24T06:30:04;7.80;99.90
34147;DHT22;20423;49.448;9.056;2023-04-24T06:32:30;8.10;99.90
34147;DHT22;20423;49.448;9.056;2023-04-24T06:34:58;8.60;99.90
34147;DHT22;20423;49.448;9.056;2023-04-24T06:37:24;8.80;99.90
34147;DHT22;20423;49.448;9.056;2023-04-24T06:39:50;8.90;99.90
34147;DHT22;20423;49.448;9.056;2023-04-24T06:42:16;9.00;99.90
34147;DHT22;20423;49.448;9.056;2023-04-24T06:44:43;8.80;99.90
34147;DHT22;20423;49.448;9.056;2023-04-24T06:47:10;9.00;99.90
34147;DHT22;20423;49.448;9.056;2023-04-24T06:49:37;8.70;99.90
34147;DHT22;20423;49.448;9.056;2023-04-24T06:52:03;8.30;99.90
34147;DHT22;20423;49.448;9.056;2023-04-24T06:54:30;8.20;99.90
34147;DHT22;20423;49.448;9.056;2023-04-24T06:56:56;8.20;99.90
34147;DHT22;20423;49.448;9.056;2023-04-24T06:59:23;8.10;99.90
34147;DHT22;20423;49.448;9.056;2023-04-24T07:01:50;8.00;99.90
34147;DHT22;20423;49.448;9.056;2023-04-24T07:04:17;7.70;99.90
34147;DHT22;20423;49.448;9.056;2023-04-24T07:06:45;7.70;99.90
34147;DHT22;20423;49.448;9.056;2023-04-24T07:09:11;7.70;99.90
34147;DHT22;20423;49.448;9.056;2023-04-24T07:11:42;7.80;99.90
34147;DHT22;20423;49.448;9.056;2023-04-24T07:14:08;7.90;99.90
34147;DHT22;20423;49.448;9.056;2023-04-24T07:16:35;8.00;99.90
34147;DHT22;20423;49.448;9.056;2023-04-24T07:19:01;8.10;99.90
34147;DHT22;20423;49.448;9.056;2023-04-24T07:21:27;8.20;99.90
34147;DHT22;20423;49.448;9.056;2023-04-24T07:23:53;8.20;99.90
34147;DHT22;20423;49.448;9.056;2023-04-24T07:26:20;8.00;99.90
34147;DHT22;20423;49.448;9.056;2023-04-24T07:28:46;8.00;99.90
34147;DHT22;20423;49.448;9.056;2023-04-24T07:31:12;7.90;99.90
34147;DHT22;20423;49.448;9.056;2023-04-24T07:33:38;7.70;99.90
34147;DHT22;20423;49.448;9.056;2023-04-24T07:36:04;7.70;99.90
34147;DHT22;20423;49.448;9.056;2023-04-24T07:38:30;7.60;99.90
34147;DHT22;20423;49.448;9.056;2023-04-24T07:40:56;7.40;99.90
34147;DHT22;20423;49.448;9.056;2023-04-24T07:43:22;7.20;99.90
34147;DHT22;20423;49.448;9.056;2023-04-24T07:45:50;7.00;99.90
34147;DHT22;20423;49.448;9.056;2023-04-24T07:48:16;6.90;99.90
34147;DHT22;20423;49.448;9.056;2023-04-24T07:50:46;6.70;99.90
34147;DHT22;20423;49.448;9.056;2023-04-24T07:53:12;6.50;99.90
34147;DHT22;20423;49.448;9.056;2023-04-24T07:55:37;6.40;99.90
34147;DHT22;20423;49.448;9.056;2023-04-24T07:58:05;6.30;99.90
34147;DHT22;20423;49.448;9.056;2023-04-24T08:00:31;6.50;99.90
34147;DHT22;20423;49.448;9.056;2023-04-24T08:02:57;6.60;99.90
34147;DHT22;20423;49.448;9.056;2023-04-24T08:05:23;6.70;99.90
34147;DHT22;20423;49.448;9.056;2023-04-24T08:07:51;6.90;99.90
34147;DHT22;20423;49.448;9.056;2023-04-24T08:10:17;7.00;99.90
34147;DHT22;20423;49.448;9.056;2023-04-24T08:12:42;6.90;99.90
34147;DHT22;20423;49.448;9.056;2023-04-24T08:15:08;7.00;99.90
34147;DHT22;20423;49.448;9.056;2023-04-24T08:17:34;7.10;99.90
34147;DHT22;20423;49.448;9.056;2023-04-24T08:20:01;7.20;99.90
34147;DHT22;20423;49.448;9.056;2023-04-24T08:22:27;7.10;99.90
34147;DHT22;20423;49.448;9.056;2023-04-24T08:24:54;7.10;99.90
34147;DHT22;20423;49.448;9.056;2023-04-24T08:27:21;7.30;99.90
34147;DHT22;20423;49.448;9.056;2023-04-24T08:29:47;7.40;99.90
34147;DHT22;20423;49.448;9.056;2023-04-24T08:32:12;7.50;99.90
34147;DHT22;20423;49.448;9.056;2023-04-24T08:34:38;7.50;99.90
34147;DHT22;20423;49.448;9.056;2023-04-24T08:37:04;7.70;99.90
34147;DHT22;20423;49.448;9.056;2023-04-24T08:39:30;7.90;99.90
34147;DHT22;20423;49.448;9.056;2023-04-24T08:41:55;8.10;99.90
34147;DHT22;20423;49.448;9.056;2023-04-24T08:44:21;8.10;99.90
34147;DHT22;20423;49.448;9.056;2023-04-24T08:46:50;8.50;99.90
34147;DHT22;20423;49.448;9.056;2023-04-24T08:49:17;8.80;99.90
34147;DHT22;20423;49.448;9.056;2023-04-24T08:51:44;8.90;99.90
34147;DHT22;20423;49.448;9.056;2023-04-24T08:54:12;9.40;99.90
34147;DHT22;20423;49.448;9.056;2023-04-24T08:56:38;10.40;99.90
34147;DHT22;20423;49.448;9.056;2023-04-24T08:59:08;11.00;99.90
34147;DHT22;20423;49.448;9.056;2023-04-24T09:01:34;10.80;99.90
34147;DHT22;20423;49.448;9.056;2023-04-24T09:04:03;10.80;99.90
34147;DHT22;20423;49.448;9.056;2023-04-24T09:06:30;10.60;99.90
34147;DHT22;20423;49.448;9.056;2023-04-24T09:09:00;10.00;99.90
34147;DHT22;20423;49.448;9.056;2023-04-24T09:11:27;9.30;99.90
34147;DHT22;20423;49.448;9.056;2023-04-24T09:13:56;8.70;99.90
34147;DHT22;20423;49.448;9.056;2023-04-24T09:16:22;8.40;99.90
34147;DHT22;20423;49.448;9.056;2023-04-24T09:18:50;8.20;99.90
34147;DHT22;20423;49.448;9.056;2023-04-24T09:21:15;8.10;99.90
34147;DHT22;20423;49.448;9.056;2023-04-24T09:23:41;8.20;99.90
34147;DHT22;20423;49.448;9.056;2023-04-24T09:26:09;8.20;99.90
34147;DHT22;20423;49.448;9.056;2023-04-24T09:28:36;8.20;99.90
34147;DHT22;20423;49.448;9.056;2023-04-24T09:31:22;8.10;99.90
34147;DHT22;20423;49.448;9.056;2023-04-24T09:34:03;8.30;99.90
34147;DHT22;20423;49.448;9.056;2023-04-24T09:36:36;8.70;99.90
34147;DHT22;20423;49.448;9.056;2023-04-24T09:39:04;9.20;99.90
34147;DHT22;20423;49.448;9.056;2023-04-24T09:41:32;9.40;99.90
34147;DHT22;20423;49.448;9.056;2023-04-24T09:44:11;9.20;99.90
34147;DHT22;20423;49.448;9.056;2023-04-24T09:46:37;9.50;99.90
34147;DHT22;20423;49.448;9.056;2023-04-24T09:49:14;9.60;99.90
34147;DHT22;20423;49.448;9.056;2023-04-24T09:51:43;9.40;99.90
34147;DHT22;20423;49.448;9.056;2023-04-24T09:54:16;9.50;99.90
34147;DHT22;20423;49.448;9.056;2023-04-24T09:56:44;9.20;99.90
34147;DHT22;20423;49.448;9.056;2023-04-24T09:59:14;9.30;99.90
34147;DHT22;20423;49.448;9.056;2023-04-24T10:01:47;9.40;99.90
34147;DHT22;20423;49.448;9.056;2023-04-24T10:04:21;9.40;99.90
34147;DHT22;20423;49.448;9.056;2023-04-24T10:06:49;8.90;99.90
34147;DHT22;20423;49.448;9.056;2023-04-24T10:09:16;8.60;99.90
34147;DHT22;20423;49.448;9.056;2023-04-24T10:11:43;8.50;99.90
34147;DHT22;20423;49.448;9.056;2023-04-24T10:14:19;8.40;99.90
34147;DHT22;20423;49.448;9.056;2023-04-24T10:16:46;8.70;99.90
34147;DHT22;20423;49.448;9.056;2023-04-24T10:19:13;9.20;99.90
34147;DHT22;20423;49.448;9.056;2023-04-24T10:21:42;9.30;99.90
34147;DHT22;20423;49.448;9.056;2023-04-24T10:24:13;9.70;99.90
34147;DHT22;20423;49.448;9.056;2023-04-24T10:26:40;10.00;99.90
34147;DHT22;20423;49.448;9.056;2023-04-24T10:29:06;9.90;99.90
34147;DHT22;20423;49.448;9.056;2023-04-24T10:31:36;9.90;99.90
34147;DHT22;20423;49.448;9.056;2023-04-24T10:34:07;9.90;99.90
34147;DHT22;20423;49.448;9.056;2023-04-24T10:36:34;9.80;99.90
34147;DHT22;20423;49.448;9.056;2023-04-24T10:39:02;9.80;99.90
34147;DHT22;20423;49.448;9.056;2023-04-24T10:41:30;9.90;99.90
34147;DHT22;20423;49.448;9.056;2023-04-24T10:44:09;9.60;99.90
34147;DHT22;20423;49.448;9.056;2023-04-24T10:46:36;9.70;99.90
34147;DHT22;20423;49.448;9.056;2023-04-24T10:49:06;9.80;99.90
34147;DHT22;20423;49.448;9.056;2023-04-24T10:51:48;9.60;99.90
34147;DHT22;20423;49.448;9.056;2023-04-24T10:54:25;9.30;99.90
34147;DHT22;20423;49.448;9.056;2023-04-24T10:56:52;9.10;99.90
34147;DHT22;20423;49.448;9.056;2023-04-24T10:59:28;8.90;99.90
34147;DHT22;20423;49.448;9.056;2023-04-24T11:02:00;9.00;99.90
34147;DHT22;20423;49.448;9.056;2023-04-24T11:04:31;8.90;99.90
34147;DHT22;20423;49.448;9.056;2023-04-24T11:06:57;8.40;99.90
34147;DHT22;20423;49.448;9.056;2023-04-24T11:09:27;7.90;99.90
34147;DHT22;20423;49.448;9.056;2023-04-24T11:12:11;7.50;99.90
34147;DHT22;20423;49.448;9.056;2023-04-24T11:17:37;7.20;99.90
34147;DHT22;20423;49.448;9.056;2023-04-24T11:20:10;7.30;99.90
34147;DHT22;20423;49.448;9.056;2023-04-24T11:22:38;7.80;99.90
34147;DHT22;20423;49.448;9.056;2023-04-24T11:25:06;8.30;99.90
34147;DHT22;20423;49.448;9.056;2023-04-24T11:27:43;8.90;99.90
34147;DHT22;20423;49.448;9.056;2023-04-24T11:30:10;9.70;99.90
34147;DHT22;20423;49.448;9.056;2023-04-24T11:32:41;10.00;99.90
34147;DHT22;20423;49.448;9.056;2023-04-24T11:35:14;9.70;99.90
34147;DHT22;20423;49.448;9.056;2023-04-24T11:37:43;9.40;99.90
34147;DHT22;20423;49.448;9.056;2023-04-24T11:40:11;9.20;99.90
34147;DHT22;20423;49.448;9.056;2023-04-24T11:42:38;9.00;99.90
34147;DHT22;20423;49.448;9.056;2023-04-24T11:45:15;8.90;99.90
34147;DHT22;20423;49.448;9.056;2023-04-24T11:47:43;9.10;99.90
34147;DHT22;20423;49.448;9.056;2023-04-24T11:50:12;9.00;99.90
34147;DHT22;20423;49.448;9.056;2023-04-24T11:52:41;8.90;99.90
34147;DHT22;20423;49.448;9.056;2023-04-24T11:55:29;8.70;99.90
34147;DHT22;20423;49.448;9.056;2023-04-24T11:57:56;9.00;99.90
34147;DHT22;20423;49.448;9.056;2023-04-24T12:00:24;9.10;99.90
34147;DHT22;20423;49.448;9.056;2023-04-24T12:02:51;9.00;99.90
34147;DHT22;20423;49.448;9.056;2023-04-24T12:05:27;9.10;99.90
34147;DHT22;20423;49.448;9.056;2023-04-24T12:07:53;8.80;99.90
34147;DHT22;20423;49.448;9.056;2023-04-24T12:10:24;8.70;99.90
34147;DHT22;20423;49.448;9.056;2023-04-24T12:12:50;8.60;99.90
34147;DHT22;20423;49.448;9.056;2023-04-24T12:15:18;8.60;99.90
34147;DHT22;20423;49.448;9.056;2023-04-24T12:17:44;8.70;99.90
34147;DHT22;20423;49.448;9.056;2023-04-24T12:20:11;8.90;99.90
34147;DHT22;20423;49.448;9.056;2023-04-24T12:25:10;9.00;99.90
34147;DHT22;20423;49.448;9.056;2023-04-24T12:27:36;9.00;99.90
34147;DHT22;20423;49.448;9.056;2023-04-24T12:30:05;9.20;99.90
34147;DHT22;20423;49.448;9.056;2023-04-24T12:32:31;9.30;99.90
34147;DHT22;20423;49.448;9.056;2023-04-24T12:34:58;9.10;99.90
34147;DHT22;20423;49.448;9.056;2023-04-24T12:37:25;8.80;99.90
34147;DHT22;20423;49.448;9.056;2023-04-24T12:40:10;8.70;99.90
34147;DHT22;20423;49.448;9.056;2023-04-24T12:42:43;8.60;99.90
34147;DHT22;20423;49.448;9.056;2023-04-24T12:45:09;8.40;99.90
34147;DHT22;20423;49.448;9.056;2023-04-24T12:47:37;8.40;99.90
34147;DHT22;20423;49.448;9.056;2023-04-24T12:50:04;8.30;99.90
34147;DHT22;20423;49.448;9.056;2023-04-24T12:52:31;8.20;99.90
34147;DHT22;20423;49.448;9.056;2023-04-24T12:54:58;8.20;99.90
34147;DHT22;20423;49.448;9.056;2023-04-24T12:57:26;8.20;99.90
34147;DHT22;20423;49.448;9.056;2023-04-24T12:59:56;8.50;99.90
34147;DHT22;20423;49.448;9.056;2023-04-24T13:02:23;8.90;99.90
34147;DHT22;20423;49.448;9.056;2023-04-24T13:04:50;9.50;99.90
34147;DHT22;20423;49.448;9.056;2023-04-24T13:07:16;10.00;99.90
34147;DHT22;20423;49.448;9.056;2023-04-24T13:09:43;10.50;99.90
34147;DHT22;20423;49.448;9.056;2023-04-24T13:12:11;11.00;99.90
34147;DHT22;20423;49.448;9.056;2023-04-24T13:14:37;11.40;99.90
34147;DHT22;20423;49.448;9.056;2023-04-24T13:17:03;11.20;99.90
34147;DHT22;20423;49.448;9.056;2023-04-24T13:19:34;11.10;99.90
34147;DHT22;20423;49.448;9.056;2023-04-24T13:22:01;11.00;99.90
34147;DHT22;20423;49.448;9.056;2023-04-24T13:24:26;10.50;99.90
34147;DHT22;20423;49.448;9.056;2023-04-24T13:26:52;10.40;99.90
34147;DHT22;20423;49.448;9.056;2023-04-24T13:29:18;10.70;99.90
34147;DHT22;20423;49.448;9.056;2023-04-24T13:31:46;11.00;99.90
34147;DHT22;20423;49.448;9.056;2023-04-24T13:34:13;10.40;99.90
34147;DHT22;20423;49.448;9.056;2023-04-24T13:40:07;9.90;99.90
34147;DHT22;20423;49.448;9.056;2023-04-24T13:42:33;9.80;99.90
34147;DHT22;20423;49.448;9.056;2023-04-24T13:45:00;9.80;99.90
34147;DHT22;20423;49.448;9.056;2023-04-24T13:47:25;9.90;99.90
34147;DHT22;20423;49.448;9.056;2023-04-24T13:49:51;10.10;99.90
34147;DHT22;20423;49.448;9.056;2023-04-24T13:52:19;10.10;99.90
34147;DHT22;20423;49.448;9.056;2023-04-24T13:54:45;9.80;99.90
34147;DHT22;20423;49.448;9.056;2023-04-24T13:57:10;9.60;99.90
34147;DHT22;20423;49.448;9.056;2023-04-24T13:59:36;9.40;99.90
34147;DHT22;20423;49.448;9.056;2023-04-24T14:02:02;9.40;99.90
34147;DHT22;20423;49.448;9.056;2023-04-24T14:04:28;9.40;99.90
34147;DHT22;20423;49.448;9.056;2023-04-24T14:06:53;9.40;99.90
34147;DHT22;20423;49.448;9.056;2023-04-24T14:09:19;9.50;99.90
34147;DHT22;20423;49.448;9.056;2023-04-24T14:11:45;9.40;99.90
34147;DHT22;20423;49.448;9.056;2023-04-24T14:14:10;9.20;99.90
34147;DHT22;20423;49.448;9.056;2023-04-24T14:16:36;9.20;99.90
34147;DHT22;20423;49.448;9.056;2023-04-24T14:19:02;9.40;99.90
34147;DHT22;20423;49.448;9.056;2023-04-24T14:21:28;9.80;99.90
34147;DHT22;20423;49.448;9.056;2023-04-24T14:23:53;10.10;99.90
34147;DHT22;20423;49.448;9.056;2023-04-24T14:26:19;10.10;99.90
34147;DHT22;20423;49.448;9.056;2023-04-24T14:28:45;10.20;99.90
34147;DHT22;20423;49.448;9.056;2023-04-24T14:31:11;10.20;99.90
34147;DHT22;20423;49.448;9.056;2023-04-24T14:33:36;10.30;99.90
34147;DHT22;20423;49.448;9.056;2023-04-24T14:36:02;10.20;99.90
34147;DHT22;20423;49.448;9.056;2023-04-24T14:38:29;10.00;99.90
34147;DHT22;20423;49.448;9.056;2023-04-24T14:40:56;9.50;99.90
34147;DHT22;20423;49.448;9.056;2023-04-24T14:43:22;8.90;99.90
34147;DHT22;20423;49.448;9.056;2023-04-24T14:45:48;8.40;99.90
34147;DHT22;20423;49.448;9.056;2023-04-24T14:48:23;8.00;99.90
34147;DHT22;20423;49.448;9.056;2023-04-24T14:50:48;7.70;99.90
34147;DHT22;20423;49.448;9.056;2023-04-24T14:53:14;7.60;99.90
34147;DHT22;20423;49.448;9.056;2023-04-24T14:55:40;7.60;99.90
34147;DHT22;20423;49.448;9.056;2023-04-24T14:58:06;7.60;99.90
34147;DHT22;20423;49.448;9.056;2023-04-24T15:00:31;7.70;99.90
34147;DHT22;20423;49.448;9.056;2023-04-24T15:02:57;7.80;99.90
34147;DHT22;20423;49.448;9.056;2023-04-24T15:05:23;7.80;99.90
34147;DHT22;20423;49.448;9.056;2023-04-24T15:07:50;7.70;99.90
34147;DHT22;20423;49.448;9.056;2023-04-24T15:10:15;7.80;99.90
34147;DHT22;20423;49.448;9.056;2023-04-24T15:12:43;7.80;99.90
34147;DHT22;20423;49.448;9.056;2023-04-24T15:15:09;7.80;99.90
34147;DHT22;20423;49.448;9.056;2023-04-24T15:17:35;7.90;99.90
34147;DHT22;20423;49.448;9.056;2023-04-24T15:20:01;7.80;99.90
34147;DHT22;20423;49.448;9.056;2023-04-24T15:22:26;7.60;99.90
34147;DHT22;20423;49.448;9.056;2023-04-24T15:24:52;7.50;99.90
34147;DHT22;20423;49.448;9.056;2023-04-24T15:27:18;7.40;99.90
34147;DHT22;20423;49.448;9.056;2023-04-24T15:29:43;7.40;99.90
34147;DHT22;20423;49.448;9.056;2023-04-24T15:32:09;7.50;99.90
34147;DHT22;20423;49.448;9.056;2023-04-24T15:34:35;7.60;99.90
34147;DHT22;20423;49.448;9.056;2023-04-24T15:37:01;7.60;99.90
34147;DHT22;20423;49.448;9.056;2023-04-24T15:39:26;7.70;99.90
34147;DHT22;20423;49.448;9.056;2023-04-24T15:41:52;7.90;99.90
34147;DHT22;20423;49.448;9.056;2023-04-24T15:44:19;8.10;99.90
34147;DHT22;20423;49.448;9.056;2023-04-24T15:46:45;8.50;99.90
34147;DHT22;20423;49.448;9.056;2023-04-24T15:49:11;8.80;99.90
34147;DHT22;20423;49.448;9.056;2023-04-24T15:51:36;8.90;99.90
34147;DHT22;20423;49.448;9.056;2023-04-24T15:54:02;8.80;99.90
34147;DHT22;20423;49.448;9.056;2023-04-24T15:56:28;8.70;99.90